KEAU/EAU METAR and TAF weather

Enter ICAO airport designator
Station Type Date Time Source
KEAU METAR 2022/05/24 11:56 UTC NOAA

KEAU 241156Z 05004KT 10SM CLR 08/05 A3026 RMK AO2 SLP251 T00780050 10083 20044 53005


Station Type Date Time Source
KEAU Decoded METAR 2022/05/24 11:56 UTC NOAA

EAU CLAIRE CHIPPEWA VALLEY, WI, United States (KEAU) 44-52N 091-29W
May 24, 2022 - 07:56 AM EDT / 2022.05.24 1156 UTC
Wind: from the NE (050 degrees) at 5 MPH (4 KT):0
Visibility: 10 mile(s):0
Sky conditions: clear
Temperature: 46.0 F (7.8 C)
Dew Point: 41.0 F (5.0 C)
Relative Humidity: 82%
Pressure (altimeter): 30.26 in. Hg (1024 hPa)
Pressure tendency: 0.01 inches (0.5 hPa) higher than three hours ago
ob: KEAU 241156Z 05004KT 10SM CLR 08/05 A3026 RMK AO2 SLP251 T00780050 10083 20044 53005
cycle: 12

Station Type Date Time Source
KEAU TAF 2022/05/24 12:30 UTC NOAA

TAF KEAU 241128Z 2412/2512 VRB03KT P6SM BKN200
FM241500 14005KT P6SM SCT070 SCT200
FM242300 11007KT P6SM BKN200
FM250600 10004KT 6SM -SHRA SCT025 OVC050
FM251000 08009KT 5SM -RA BR OVC022

Example: see airport list